Time;durP1;ratioP1;P1;durP2;ratioP2;P2;SDS_P1;SDS_P2;PMS_P1;PMS_P2;Temp;Humidity;BMP_temperature;BMP_pressure;BME280_temperature;BME280_humidity;BME280_pressure;Samples;Min_cycle;Max_cycle;Signal;HPM_P1;HPM_P2
2022/03/30 00:05:55;;;;;;;;;;;;;;;23.20;37.32;99178.63;20702736;27;102265;-75
2022/03/30 00:15:55;;;;;;;;;;;;;;;23.23;37.04;99174.81;20707026;27;97389;-75
2022/03/30 00:25:56;;;;;;;;;;;;;;;23.18;37.43;99175.34;20705644;27;97257;-74
2022/03/30 00:35:56;;;;;;;;;;;;;;;23.15;37.41;99171.16;20699303;27;97494;-74
2022/03/30 00:45:57;;;;;;;;;;;;;;;23.15;37.34;99165.88;20698602;27;97552;-75
2022/03/30 00:55:57;;;;;;;;;;;;;;;23.14;37.11;99144.91;20705808;27;100646;-75
2022/03/30 01:05:58;;;;;;;;;;;;;;;23.17;36.96;99148.09;20703767;27;97274;-74
2022/03/30 01:15:58;;;;;;;;;;;;;;;23.15;37.25;99128.09;20702610;27;99990;-75
2022/03/30 01:25:59;;;;;;;;;;;;;;;23.10;37.35;99135.66;20696718;27;96975;-74
2022/03/30 01:35:59;;;;;;;;;;;;;;;23.11;37.45;99122.31;20706602;27;97703;-74
2022/03/30 01:46:00;;;;;;;;;;;;;;;23.10;37.39;99107.44;20707643;27;97255;-74
2022/03/30 01:56:00;;;;;;;;;;;;;;;23.10;37.55;99090.78;20709236;27;96887;-74
2022/03/30 02:06:00;;;;;;;;;;;;;;;23.07;37.46;99091.09;20710271;27;97179;-74
2022/03/30 02:16:01;;;;;;;;;;;;;;;23.07;37.73;99091.09;20708840;27;98077;-74
2022/03/30 02:26:01;;;;;;;;;;;;;;;23.06;37.59;99086.81;20707240;27;97813;-75
2022/03/30 02:36:02;;;;;;;;;;;;;;;23.02;37.85;99079.22;20693906;27;100446;-74
2022/03/30 02:46:03;;;;;;;;;;;;;;;23.01;37.88;99090.75;20699519;27;101351;-75
2022/03/30 02:56:04;;;;;;;;;;;;;;;23.02;37.66;99075.75;20698428;27;97842;-75
2022/03/30 03:06:04;;;;;;;;;;;;;;;23.01;37.71;99082.84;20702573;27;97062;-75
2022/03/30 03:16:05;;;;;;;;;;;;;;;22.99;37.83;99084.00;20703597;27;97069;-75
2022/03/30 03:26:05;;;;;;;;;;;;;;;22.97;38.14;99084.16;20703607;27;99602;-75
2022/03/30 03:36:06;;;;;;;;;;;;;;;22.95;38.04;99087.94;20701644;27;97003;-74
2022/03/30 03:46:06;;;;;;;;;;;;;;;22.95;38.09;99083.50;20703981;27;97951;-75
2022/03/30 03:56:09;;;;;;;;;;;;;;;22.92;38.21;99086.44;20716200;27;98936;-75
2022/03/30 04:06:09;;;;;;;;;;;;;;;22.93;37.55;99093.38;20703354;27;97345;-75
2022/03/30 04:16:09;;;;;;;;;;;;;;;22.98;38.45;99090.25;20707959;27;102048;-76
2022/03/30 04:26:10;;;;;;;;;;;;;;;23.00;38.98;99091.75;20717787;27;99822;-74
2022/03/30 04:36:11;;;;;;;;;;;;;;;23.07;39.96;99104.28;20718972;27;97522;-75
2022/03/30 04:46:13;;;;;;;;;;;;;;;23.11;40.08;99108.28;20735246;27;98628;-75
2022/03/30 04:56:13;;;;;;;;;;;;;;;23.05;39.82;99112.38;20723164;27;98141;-78
2022/03/30 05:06:14;;;;;;;;;;;;;;;23.07;39.53;99114.84;20715038;27;97834;-78
2022/03/30 05:16:15;;;;;;;;;;;;;;;22.98;37.74;99145.69;20718946;27;97311;-78
2022/03/30 05:26:16;;;;;;;;;;;;;;;22.86;37.06;99147.81;20727364;27;97060;-79
2022/03/30 05:36:18;;;;;;;;;;;;;;;22.89;37.42;99144.84;20715424;27;97502;-77
2022/03/30 05:46:18;;;;;;;;;;;;;;;22.90;37.91;99140.38;20710829;27;98309;-79
2022/03/30 05:56:59;;;;;;;;;;;;;;;22.91;38.16;99150.81;20703954;27;100817;-78
2022/03/30 06:06:40;;;;;;;;;;;;;;;22.91;38.34;99136.78;20710592;27;101197;-79
2022/03/30 06:16:44;;;;;;;;;;;;;;;22.97;38.94;99138.75;20717399;27;99416;-79
2022/03/30 06:26:44;;;;;;;;;;;;;;;22.97;38.63;99141.41;20725319;27;97094;-78
2022/03/30 06:36:45;;;;;;;;;;;;;;;22.98;38.75;99153.63;20718180;27;97514;-79
2022/03/30 06:46:46;;;;;;;;;;;;;;;22.97;39.25;99150.16;20723350;27;97754;-79
2022/03/30 06:56:46;;;;;;;;;;;;;;;22.90;36.57;99154.44;20714506;27;97878;-79
2022/03/30 07:17:08;;;;;;;;;;;;;;;22.80;34.73;99156.34;20715814;27;98603;-80
2022/03/30 07:27:08;;;;;;;;;;;;;;;22.76;35.13;99155.03;20720926;27;97658;-75
2022/03/30 07:37:09;;;;;;;;;;;;;;;22.73;32.11;99148.25;20711566;27;97050;-77
2022/03/30 07:47:09;;;;;;;;;;;;;;;22.72;33.03;99143.97;20687613;27;101957;-77
2022/03/30 07:57:10;;;;;;;;;;;;;;;22.70;32.32;99149.41;20706150;27;98250;-78
2022/03/30 08:07:10;;;;;;;;;;;;;;;22.68;32.40;99159.28;20707709;27;97393;-78
2022/03/30 08:17:11;;;;;;;;;;;;;;;22.67;31.69;99176.09;20692557;27;100235;-77
2022/03/30 08:27:19;;;;;;;;;;;;;;;22.64;31.40;99173.78;20712022;27;99920;-80
2022/03/30 08:37:20;;;;;;;;;;;;;;;22.63;30.69;99171.28;20699093;27;97473;-78
2022/03/30 08:47:21;;;;;;;;;;;;;;;22.62;30.76;99183.66;20719021;27;96873;-79
2022/03/30 08:57:21;;;;;;;;;;;;;;;21.65;29.91;99193.34;20707423;27;99454;-79
2022/03/30 09:07:22;;;;;;;;;;;;;;;22.22;31.04;99174.50;20692704;27;97631;-78
2022/03/30 09:17:22;;;;;;;;;;;;;;;22.45;31.93;99174.00;20678647;27;100305;-78
2022/03/30 09:27:24;;;;;;;;;;;;;;;22.54;33.35;99160.72;20680837;27;98541;-77
2022/03/30 09:37:25;;;;;;;;;;;;;;;22.66;33.93;99150.69;20711163;27;98805;-80
2022/03/30 09:47:35;;;;;;;;;;;;;;;22.72;34.42;99136.06;20709819;27;98763;-77
2022/03/30 09:57:35;;;;;;;;;;;;;;;22.79;34.85;99120.38;20710737;27;96927;-77
2022/03/30 10:07:36;;;;;;;;;;;;;;;22.83;35.87;99112.00;20707062;27;97190;-81
2022/03/30 10:17:39;;;;;;;;;;;;;;;22.90;36.71;99109.56;20710004;27;107818;-79
2022/03/30 10:27:40;;;;;;;;;;;;;;;23.02;37.27;99110.06;20712360;27;97632;-79
2022/03/30 10:37:42;;;;;;;;;;;;;;;23.18;37.91;99096.94;20697006;27;97607;-79
2022/03/30 10:48:03;;;;;;;;;;;;;;;23.38;38.26;99074.66;20702321;27;98219;-79
2022/03/30 10:58:04;;;;;;;;;;;;;;;23.43;38.46;99073.16;20692069;27;96957;-79
2022/03/30 11:08:05;;;;;;;;;;;;;;;23.42;38.02;99068.84;20716871;27;97637;-77
2022/03/30 11:18:19;;;;;;;;;;;;;;;23.43;37.91;99061.78;20700844;27;97343;-77
2022/03/30 11:28:33;;;;;;;;;;;;;;;23.44;38.04;99042.31;20700118;27;101281;-77
2022/03/30 11:38:37;;;;;;;;;;;;;;;23.47;38.19;99026.09;20715840;27;97863;-81
2022/03/30 11:48:39;;;;;;;;;;;;;;;23.48;38.45;99012.72;20718681;27;97178;-81
2022/03/30 11:58:41;;;;;;;;;;;;;;;23.49;38.65;99003.81;20716614;27;96915;-81
2022/03/30 12:08:48;;;;;;;;;;;;;;;23.52;38.63;99000.00;20717099;27;97089;-86
2022/03/30 12:18:50;;;;;;;;;;;;;;;23.51;38.44;98982.53;20721745;27;100737;-84
2022/03/30 12:28:51;;;;;;;;;;;;;;;23.55;38.43;98981.19;20699863;27;98430;-82
2022/03/30 12:38:51;;;;;;;;;;;;;;;23.56;38.16;98955.56;20712538;27;98909;-84
2022/03/30 12:48:52;;;;;;;;;;;;;;;23.55;38.14;98952.13;20712056;27;97593;-80
2022/03/30 12:58:54;;;;;;;;;;;;;;;23.54;38.01;98934.63;20695284;27;98449;-81
2022/03/30 13:09:08;;;;;;;;;;;;;;;23.55;38.09;98923.06;20717665;27;99351;-80
2022/03/30 13:19:22;;;;;;;;;;;;;;;23.54;37.81;98924.03;20711861;27;97571;-79
2022/03/30 13:29:24;;;;;;;;;;;;;;;23.54;37.45;98924.03;20724242;27;97648;-79
2022/03/30 13:39:28;;;;;;;;;;;;;;;23.51;37.63;98903.25;20701797;27;97439;-78
2022/03/30 13:49:41;;;;;;;;;;;;;;;23.50;37.54;98899.78;20695313;27;97793;-79
2022/03/30 13:59:41;;;;;;;;;;;;;;;23.49;38.15;98892.03;20695100;27;97892;-80
2022/03/30 14:09:42;;;;;;;;;;;;;;;23.45;38.00;98882.81;20703678;27;98911;-80
2022/03/30 14:19:43;;;;;;;;;;;;;;;23.42;37.53;98873.38;20704217;27;97697;-82
2022/03/30 14:29:43;;;;;;;;;;;;;;;23.39;38.34;98873.75;20708748;27;97514;-80
2022/03/30 14:39:44;;;;;;;;;;;;;;;23.33;38.09;98872.59;20721963;27;97029;-78
2022/03/30 14:49:51;;;;;;;;;;;;;;;23.23;38.03;98857.94;20728504;27;100171;-80
2022/03/30 14:59:52;;;;;;;;;;;;;;;23.22;37.88;98841.28;20704697;27;98280;-78
2022/03/30 15:09:52;;;;;;;;;;;;;;;23.25;37.99;98845.41;20703165;27;98012;-78
2022/03/30 15:19:53;;;;;;;;;;;;;;;23.27;37.83;98846.06;20693980;27;100959;-80
2022/03/30 15:29:54;;;;;;;;;;;;;;;22.99;35.38;98835.88;20695883;27;97628;-79
2022/03/30 15:39:55;;;;;;;;;;;;;;;23.07;36.34;98840.28;20690808;27;98297;-78
2022/03/30 15:49:55;;;;;;;;;;;;;;;23.11;36.84;98828.41;20695226;27;97139;-77
2022/03/30 15:59:56;;;;;;;;;;;;;;;23.13;37.27;98834.34;20699126;27;97200;-78
2022/03/30 16:09:56;;;;;;;;;;;;;;;23.16;37.79;98839.28;20684904;27;99856;-75
2022/03/30 16:20:17;;;;;;;;;;;;;;;23.16;37.70;98832.22;20686722;27;99077;-78
2022/03/30 16:30:17;;;;;;;;;;;;;;;23.16;38.66;98834.00;20672712;27;97431;-76
2022/03/30 16:40:19;;;;;;;;;;;;;;;23.21;39.20;98821.13;20715598;27;97257;-75
2022/03/30 16:50:19;;;;;;;;;;;;;;;23.30;39.05;98811.38;20715043;27;97259;-76
2022/03/30 17:00:19;;;;;;;;;;;;;;;23.44;38.82;98805.38;20703557;27;98098;-78
2022/03/30 17:10:20;;;;;;;;;;;;;;;23.54;38.33;98807.00;20695654;27;98772;-77
2022/03/30 17:20:20;;;;;;;;;;;;;;;23.63;38.26;98812.06;20717906;27;102224;-78
2022/03/30 17:30:24;;;;;;;;;;;;;;;23.67;38.51;98816.00;20711713;27;98414;-75
2022/03/30 17:40:26;;;;;;;;;;;;;;;23.70;38.50;98814.81;20720308;27;97450;-76
2022/03/30 18:00:46;;;;;;;;;;;;;;;23.81;39.30;98834.75;20692543;27;97445;-76
2022/03/30 18:10:46;;;;;;;;;;;;;;;23.82;39.15;98842.50;20690560;27;99443;-77
2022/03/30 18:20:47;;;;;;;;;;;;;;;23.71;39.03;98847.38;20723571;27;97655;-77
2022/03/30 18:30:49;;;;;;;;;;;;;;;23.59;38.26;98836.34;20700993;27;97498;-74
2022/03/30 18:40:50;;;;;;;;;;;;;;;23.53;38.24;98848.41;20694109;27;97026;-75
2022/03/30 18:50:51;;;;;;;;;;;;;;;23.49;37.98;98847.94;20711053;27;96993;-75
2022/03/30 19:00:52;;;;;;;;;;;;;;;23.46;38.42;98845.66;20704015;27;97898;-75
2022/03/30 19:10:53;;;;;;;;;;;;;;;23.44;38.19;98852.09;20678540;27;97619;-75
2022/03/30 19:20:54;;;;;;;;;;;;;;;23.41;38.51;98853.28;20673871;27;97100;-75
2022/03/30 19:30:54;;;;;;;;;;;;;;;23.38;38.86;98848.31;20695951;27;97346;-74
2022/03/30 19:40:55;;;;;;;;;;;;;;;23.32;38.88;98855.09;20685931;27;97508;-74
2022/03/30 19:50:55;;;;;;;;;;;;;;;23.30;38.89;98856.25;20704917;27;97981;-74
2022/03/30 20:00:56;;;;;;;;;;;;;;;23.26;39.00;98855.78;20696434;27;98162;-74
2022/03/30 20:10:56;;;;;;;;;;;;;;;23.24;38.90;98849.88;20691866;27;98901;-73
2022/03/30 20:20:57;;;;;;;;;;;;;;;23.22;39.31;98843.06;20679504;27;100450;-76
2022/03/30 20:30:57;;;;;;;;;;;;;;;23.20;39.07;98837.97;20662060;27;101559;-74
2022/03/30 20:40:58;;;;;;;;;;;;;;;23.16;39.28;98844.56;20688541;27;98680;-75
2022/03/30 20:51:02;;;;;;;;;;;;;;;23.16;39.43;98829.56;20692526;27;102360;-74
2022/03/30 21:01:03;;;;;;;;;;;;;;;23.15;39.36;98812.03;20699189;27;97978;-75
2022/03/30 21:11:04;;;;;;;;;;;;;;;23.14;39.44;98820.13;20684797;27;100882;-75
2022/03/30 21:21:04;;;;;;;;;;;;;;;23.11;39.83;98816.03;20667359;27;97407;-75
2022/03/30 21:31:05;;;;;;;;;;;;;;;23.09;39.60;98809.28;20661637;27;97937;-75
2022/03/30 21:41:06;;;;;;;;;;;;;;;23.08;39.80;98811.06;20663160;27;97894;-74
2022/03/30 21:51:06;;;;;;;;;;;;;;;23.07;40.10;98806.81;20665125;27;98192;-74
2022/03/30 22:01:08;;;;;;;;;;;;;;;23.05;39.77;98795.59;20662919;27;107015;-75
2022/03/30 22:11:08;;;;;;;;;;;;;;;23.05;39.85;98786.84;20657709;27;96998;-75
2022/03/30 22:21:09;;;;;;;;;;;;;;;23.04;40.07;98778.09;20662844;27;97959;-74
2022/03/30 22:41:28;;;;;;;;;;;;;;;22.99;40.16;98752.19;20675696;27;98710;-74
2022/03/30 22:51:32;;;;;;;;;;;;;;;22.99;40.27;98746.91;20677528;27;100889;-75
2022/03/30 23:01:34;;;;;;;;;;;;;;;22.97;40.47;98741.00;20673061;27;102638;-73
2022/03/30 23:11:35;;;;;;;;;;;;;;;22.95;40.17;98724.50;20684342;27;96943;-75
2022/03/30 23:21:37;;;;;;;;;;;;;;;22.93;39.99;98726.50;20666711;27;100108;-74
2022/03/30 23:31:38;;;;;;;;;;;;;;;22.94;40.21;98725.50;20675018;27;99812;-74
2022/03/30 23:41:38;;;;;;;;;;;;;;;22.93;40.11;98720.41;20676753;27;100217;-75
2022/03/30 23:51:39;;;;;;;;;;;;;;;22.91;40.57;98714.47;20678730;27;97279;-75
